Time;durP1;ratioP1;P1;durP2;ratioP2;P2;SDS_P1;SDS_P2;PMS_P1;PMS_P2;Temp;Humidity;BMP_temperature;BMP_pressure;BME280_temperature;BME280_humidity;BME280_pressure;Samples;Min_cycle;Max_cycle;Signal;HPM_P1;HPM_P2
2023/08/24 00:00:42;;;;;;;10.25;4.68;;;24.50;58.40;;;;;;5050727;28;20021;-47
2023/08/24 00:03:08;;;;;;;11.15;4.50;;;24.50;58.40;;;;;;5050509;28;20021;-45
2023/08/24 00:05:38;;;;;;;16.45;4.68;;;24.50;58.50;;;;;;5049229;28;20048;-45
2023/08/24 00:08:04;;;;;;;13.75;4.88;;;24.60;58.50;;;;;;5050891;28;20033;-48
2023/08/24 00:10:30;;;;;;;10.48;4.88;;;24.50;58.40;;;;;;5048086;28;20029;-47
2023/08/24 00:12:56;;;;;;;10.55;4.88;;;24.50;58.60;;;;;;5050704;28;20405;-45
2023/08/24 00:15:22;;;;;;;8.68;4.50;;;24.50;58.70;;;;;;5044472;28;20060;-52
2023/08/24 00:17:48;;;;;;;8.40;4.68;;;24.50;58.60;;;;;;5048147;28;20066;-45
2023/08/24 00:20:14;;;;;;;9.55;4.20;;;24.50;58.60;;;;;;5049996;28;20025;-45
2023/08/24 00:22:40;;;;;;;10.23;4.70;;;24.50;58.70;;;;;;5050736;28;20021;-47
2023/08/24 00:25:08;;;;;;;9.30;4.50;;;24.50;58.80;;;;;;5048461;28;20021;-47
2023/08/24 00:27:35;;;;;;;9.50;4.90;;;24.50;58.90;;;;;;5052877;28;20013;-47
2023/08/24 00:30:06;;;;;;;9.88;4.63;;;24.50;58.90;;;;;;5054202;28;20024;-45
2023/08/24 00:32:34;;;;;;;8.13;4.20;;;24.50;58.80;;;;;;5028253;28;20029;-47
2023/08/24 00:35:09;;;;;;;13.43;4.72;;;24.50;59.00;;;;;;5053111;28;20032;-45
2023/08/24 00:37:35;;;;;;;9.55;4.57;;;24.50;58.90;;;;;;5053457;28;20029;-45
2023/08/24 00:40:09;;;;;;;9.48;4.53;;;24.50;58.80;;;;;;5050332;28;20100;-50
2023/08/24 00:42:43;;;;;;;9.27;4.57;;;24.50;58.80;;;;;;5052773;28;20394;-51
2023/08/24 00:45:10;;;;;;;7.65;4.28;;;24.50;58.80;;;;;;5053211;28;20404;-50
2023/08/24 00:47:39;;;;;;;7.28;4.47;;;24.50;58.90;;;;;;5053165;28;20441;-48
2023/08/24 00:50:06;;;;;;;13.50;4.68;;;24.50;58.90;;;;;;5035339;28;20021;-47
2023/08/24 00:52:33;;;;;;;11.40;4.45;;;24.50;59.00;;;;;;5053017;28;20082;-46
2023/08/24 00:54:59;;;;;;;10.70;5.10;;;24.40;59.00;;;;;;5051686;28;20032;-44
2023/08/24 00:57:27;;;;;;;9.18;5.00;;;24.50;59.10;;;;;;5053553;28;20366;-51
2023/08/24 00:59:53;;;;;;;9.20;4.68;;;24.40;59.00;;;;;;5053521;28;20025;-45
2023/08/24 01:02:19;;;;;;;8.30;4.65;;;24.40;59.00;;;;;;5035593;28;20029;-48
2023/08/24 01:04:47;;;;;;;11.32;4.30;;;24.40;59.00;;;;;;5045396;28;20088;-50
2023/08/24 01:07:13;;;;;;;8.52;4.45;;;24.40;59.00;;;;;;5048365;28;20029;-45
2023/08/24 01:09:39;;;;;;;8.38;3.97;;;24.30;58.90;;;;;;5047544;28;20519;-48
2023/08/24 01:12:17;;;;;;;10.15;4.30;;;24.40;59.00;;;;;;5033092;28;20022;-49
2023/08/24 01:14:57;;;;;;;9.25;3.70;;;24.40;59.00;;;;;;5034016;28;20044;-45
2023/08/24 01:17:24;;;;;;;;;;;24.30;58.90;;;;;;5045710;28;20033;-51
2023/08/24 01:19:50;;;;;;;10.45;3.60;;;24.30;58.90;;;;;;5035625;28;19962;-48
2023/08/24 01:22:45;;;;;;;9.70;3.80;;;24.40;58.90;;;;;;5043633;28;20467;-50
2023/08/24 01:25:33;;;;;;;6.68;3.83;;;24.30;58.80;;;;;;5052251;28;20099;-48
2023/08/24 01:28:00;;;;;;;9.77;3.47;;;24.30;58.80;;;;;;5034330;28;20029;-49
2023/08/24 01:30:26;;;;;;;7.50;3.85;;;24.30;58.80;;;;;;5052963;28;20681;-45
2023/08/24 01:32:52;;;;;;;7.45;3.70;;;24.30;58.90;;;;;;5052335;28;20026;-48
2023/08/24 01:35:18;;;;;;;10.88;3.88;;;24.30;58.70;;;;;;5041355;28;20035;-50
2023/08/24 01:37:44;;;;;;;8.77;3.17;;;24.30;58.40;;;;;;5033820;28;20024;-46
2023/08/24 01:40:22;;;;;;;9.68;3.47;;;24.30;58.30;;;;;;5052868;28;20087;-45
2023/08/24 01:43:05;;;;;;;9.48;3.65;;;24.30;58.20;;;;;;5034300;28;20031;-45
2023/08/24 01:45:32;;;;;;;8.90;3.33;;;24.30;58.20;;;;;;5028081;28;20029;-45
2023/08/24 01:48:02;;;;;;;5.05;3.05;;;24.30;58.10;;;;;;5052164;28;20028;-49
2023/08/24 01:50:30;;;;;;;5.75;2.90;;;24.30;58.20;;;;;;5052697;28;20433;-45
2023/08/24 01:52:56;;;;;;;7.95;3.40;;;24.30;58.00;;;;;;5034208;28;20096;-50
2023/08/24 01:55:22;;;;;;;5.93;2.60;;;24.30;57.90;;;;;;5033663;28;20037;-45
2023/08/24 01:57:49;;;;;;;6.45;3.15;;;24.30;58.00;;;;;;5052582;28;20025;-48
2023/08/24 02:00:15;;;;;;;5.88;3.00;;;24.30;57.80;;;;;;5051043;28;20025;-50
2023/08/24 02:02:43;;;;;;;5.57;3.10;;;24.30;58.00;;;;;;5051567;28;20489;-47
2023/08/24 02:05:09;;;;;;;9.02;3.10;;;24.30;58.00;;;;;;5033540;28;20480;-46
2023/08/24 02:07:35;;;;;;;7.22;3.28;;;24.30;57.90;;;;;;5047891;28;20021;-46
2023/08/24 02:10:03;;;;;;;7.47;3.00;;;24.40;57.90;;;;;;5051758;28;20017;-48
2023/08/24 02:12:29;;;;;;;9.90;3.30;;;24.30;57.90;;;;;;5051730;28;20029;-46
2023/08/24 02:14:55;;;;;;;8.50;2.88;;;24.30;57.90;;;;;;5030769;28;20387;-46
2023/08/24 02:17:20;;;;;;;6.32;2.92;;;24.30;57.90;;;;;;5045709;28;20052;-48
2023/08/24 02:19:46;;;;;;;10.13;2.95;;;24.30;58.00;;;;;;5050987;28;20021;-46
2023/08/24 02:22:12;;;;;;;10.95;3.22;;;24.30;58.10;;;;;;5050655;28;20666;-47
2023/08/24 02:24:39;;;;;;;6.80;2.92;;;24.30;58.10;;;;;;5034149;28;20092;-53
2023/08/24 02:27:05;;;;;;;5.13;3.08;;;24.30;58.30;;;;;;5031775;28;20101;-47
2023/08/24 02:29:30;;;;;;;5.80;3.00;;;24.30;58.50;;;;;;5043900;28;20489;-45
2023/08/24 02:31:56;;;;;;;10.30;3.15;;;24.30;58.60;;;;;;5071979;22;20045;-50
2023/08/24 02:34:22;;;;;;;9.52;3.20;;;24.30;58.70;;;;;;5043749;28;20048;-50
2023/08/24 02:36:48;;;;;;;7.35;3.47;;;24.30;58.90;;;;;;5067750;28;20099;-47
2023/08/24 02:39:14;;;;;;;7.35;3.30;;;24.20;59.00;;;;;;5066749;28;20032;-45
2023/08/24 02:41:40;;;;;;;8.20;3.63;;;24.20;59.20;;;;;;5060867;28;20100;-47
2023/08/24 02:44:06;;;;;;;7.45;3.80;;;24.20;59.40;;;;;;5040963;28;20104;-48
2023/08/24 02:46:32;;;;;;;7.13;3.50;;;24.20;59.50;;;;;;5033428;28;20369;-46
2023/08/24 02:48:57;;;;;;;8.10;4.03;;;24.20;59.70;;;;;;5036238;28;20029;-47
2023/08/24 02:51:24;;;;;;;8.98;3.72;;;24.20;60.40;;;;;;5051600;28;20035;-46
2023/08/24 02:53:50;;;;;;;9.13;3.97;;;24.20;60.00;;;;;;5051400;28;20021;-47
2023/08/24 02:56:16;;;;;;;5.90;3.75;;;24.20;60.10;;;;;;5051586;28;20032;-45
2023/08/24 02:58:42;;;;;;;7.63;3.78;;;24.20;60.20;;;;;;5042503;28;20095;-44
2023/08/24 03:01:08;;;;;;;7.38;3.90;;;24.20;60.20;;;;;;5035947;28;20025;-45
2023/08/24 03:03:35;;;;;;;9.95;4.05;;;24.20;60.30;;;;;;5029601;28;20101;-49
2023/08/24 03:06:03;;;;;;;10.38;4.20;;;24.20;60.30;;;;;;5047422;28;20021;-44
2023/08/24 03:08:33;;;;;;;7.90;3.97;;;24.30;60.40;;;;;;5040913;28;20033;-44
2023/08/24 03:11:02;;;;;;;9.63;4.22;;;24.20;60.20;;;;;;5033912;28;20040;-49
2023/08/24 03:13:30;;;;;;;10.68;4.35;;;24.20;60.10;;;;;;5041878;28;20036;-46
2023/08/24 03:15:56;;;;;;;7.57;4.22;;;24.20;60.10;;;;;;5030618;28;20026;-47
2023/08/24 03:18:24;;;;;;;9.18;4.03;;;24.20;60.00;;;;;;5029829;28;20024;-48
2023/08/24 03:20:50;;;;;;;9.57;3.78;;;24.20;59.90;;;;;;5033533;28;20033;-47
2023/08/24 03:23:16;;;;;;;7.57;3.78;;;24.20;60.00;;;;;;5016166;28;20078;-47
2023/08/24 03:25:43;;;;;;;10.02;3.65;;;24.20;60.00;;;;;;5043837;28;20030;-52
2023/08/24 03:28:09;;;;;;;10.20;3.90;;;24.20;60.00;;;;;;5048631;28;20044;-48
2023/08/24 03:30:36;;;;;;;8.18;3.83;;;24.20;59.80;;;;;;5029099;28;20108;-47
2023/08/24 03:33:03;;;;;;;8.45;3.90;;;24.20;59.80;;;;;;5040596;28;20500;-53
2023/08/24 03:35:32;;;;;;;7.88;4.13;;;24.20;59.60;;;;;;5016618;28;20069;-50
2023/08/24 03:37:59;;;;;;;7.88;3.28;;;24.20;59.60;;;;;;5047416;28;20055;-51
2023/08/24 03:40:26;;;;;;;6.85;3.60;;;24.20;59.30;;;;;;5033550;28;20476;-52
2023/08/24 03:42:53;;;;;;;9.13;3.38;;;24.20;59.20;;;;;;5032888;28;20040;-49
2023/08/24 03:45:20;;;;;;;6.53;3.30;;;24.20;59.10;;;;;;5035370;28;20101;-46
2023/08/24 03:47:45;;;;;;;8.95;3.53;;;24.20;59.20;;;;;;5033654;28;20443;-52
2023/08/24 03:50:11;;;;;;;10.40;3.55;;;24.20;58.80;;;;;;5033052;28;20032;-50
2023/08/24 03:52:39;;;;;;;7.45;3.85;;;24.20;58.60;;;;;;5025271;28;20388;-50
2023/08/24 03:55:06;;;;;;;8.35;4.20;;;24.20;58.60;;;;;;5033720;28;20025;-50
2023/08/24 03:57:32;;;;;;;9.50;4.18;;;24.20;58.40;;;;;;5046171;28;20032;-52
2023/08/24 03:59:58;;;;;;;8.57;4.30;;;24.20;58.50;;;;;;5040083;28;20026;-53
2023/08/24 04:02:24;;;;;;;9.18;4.30;;;24.20;58.40;;;;;;5034662;28;20021;-48
2023/08/24 04:04:50;;;;;;;8.93;4.22;;;24.20;58.30;;;;;;5046334;28;20017;-50
2023/08/24 04:07:16;;;;;;;9.05;4.78;;;24.10;58.20;;;;;;5045786;28;20025;-46
2023/08/24 04:09:42;;;;;;;10.70;4.05;;;24.10;58.30;;;;;;5062984;28;20025;-47
2023/08/24 04:12:08;;;;;;;8.43;3.38;;;24.10;58.30;;;;;;5036645;28;20037;-51
2023/08/24 04:14:34;;;;;;;6.38;3.22;;;24.10;58.40;;;;;;5032799;28;20370;-50
2023/08/24 04:17:01;;;;;;;12.02;3.13;;;24.10;58.30;;;;;;5055666;28;20025;-47
2023/08/24 04:19:26;;;;;;;7.78;3.00;;;24.10;58.20;;;;;;5036637;28;20027;-47
2023/08/24 04:21:52;;;;;;;6.38;2.85;;;24.10;58.10;;;;;;5036714;28;20021;-51
2023/08/24 04:24:18;;;;;;;6.45;3.25;;;24.10;58.20;;;;;;5032524;28;20085;-45
2023/08/24 04:26:44;;;;;;;7.00;2.92;;;24.10;58.10;;;;;;5047405;28;20032;-45
2023/08/24 04:29:10;;;;;;;6.30;3.10;;;24.10;58.00;;;;;;5044466;28;20177;-45
2023/08/24 04:31:37;;;;;;;7.53;2.80;;;24.00;57.90;;;;;;5032723;28;20037;-45
2023/08/24 04:34:04;;;;;;;7.30;2.92;;;24.10;57.90;;;;;;5049281;28;20060;-47
2023/08/24 04:36:30;;;;;;;4.70;2.63;;;24.10;58.10;;;;;;5047722;28;20032;-44
2023/08/24 04:38:55;;;;;;;6.75;2.80;;;24.10;57.80;;;;;;5045256;28;20029;-47
2023/08/24 04:41:21;;;;;;;4.97;2.63;;;24.10;57.80;;;;;;5045441;28;20477;-45
2023/08/24 04:43:47;;;;;;;6.40;3.00;;;24.00;57.80;;;;;;5045765;28;20026;-46
2023/08/24 04:46:13;;;;;;;6.63;3.10;;;24.10;57.70;;;;;;5056613;28;20036;-47
2023/08/24 04:48:38;;;;;;;6.57;2.97;;;24.10;57.80;;;;;;5053280;28;20040;-47
2023/08/24 04:51:04;;;;;;;6.25;2.67;;;24.10;57.90;;;;;;5049602;28;20025;-46
2023/08/24 04:53:30;;;;;;;5.07;2.78;;;24.00;57.90;;;;;;5040621;28;20027;-48
2023/08/24 04:55:56;;;;;;;9.85;3.45;;;24.00;58.00;;;;;;5049788;28;20111;-46
2023/08/24 04:58:23;;;;;;;6.47;2.97;;;24.00;57.80;;;;;;5052899;28;20487;-45
2023/08/24 05:00:49;;;;;;;8.70;2.70;;;24.00;57.80;;;;;;5045083;28;20029;-48
2023/08/24 05:03:14;;;;;;;13.85;3.35;;;24.10;58.00;;;;;;5044288;28;20032;-47
2023/08/24 05:05:40;;;;;;;5.95;2.92;;;24.10;58.00;;;;;;5045470;28;20028;-45
2023/08/24 05:08:09;;;;;;;8.70;2.97;;;24.10;58.10;;;;;;5051709;28;20395;-46
2023/08/24 05:10:36;;;;;;;6.28;2.90;;;24.10;58.20;;;;;;5047933;28;20047;-46
2023/08/24 05:13:02;;;;;;;6.75;3.00;;;24.10;58.20;;;;;;5052383;28;20025;-48
2023/08/24 05:15:28;;;;;;;7.13;3.03;;;24.10;58.30;;;;;;5048620;28;20036;-45
2023/08/24 05:17:55;;;;;;;8.50;3.22;;;24.00;58.30;;;;;;5053211;28;20386;-46
2023/08/24 05:20:25;;;;;;;9.20;3.17;;;24.10;58.30;;;;;;5053344;28;20086;-48
2023/08/24 05:22:51;;;;;;;5.90;3.20;;;24.10;58.40;;;;;;5052705;28;20151;-45
2023/08/24 05:25:17;;;;;;;6.53;3.05;;;24.00;58.40;;;;;;5052850;28;20396;-46
2023/08/24 05:27:44;;;;;;;8.75;3.22;;;24.00;58.50;;;;;;5048795;28;20018;-52
2023/08/24 05:30:10;;;;;;;7.90;2.95;;;24.10;58.60;;;;;;5034999;28;20032;-46
2023/08/24 05:32:39;;;;;;;8.35;3.42;;;24.10;58.50;;;;;;5040740;28;20116;-46
2023/08/24 05:35:06;;;;;;;5.00;2.78;;;24.10;58.60;;;;;;5042568;28;20017;-48
2023/08/24 05:37:33;;;;;;;8.43;3.05;;;24.10;58.60;;;;;;5035399;28;20032;-45
2023/08/24 05:40:00;;;;;;;5.63;2.90;;;24.10;58.60;;;;;;5051646;28;20040;-47
2023/08/24 05:42:25;;;;;;;5.35;2.75;;;24.10;58.50;;;;;;5032663;28;20028;-54
2023/08/24 05:44:51;;;;;;;7.97;3.00;;;24.10;58.50;;;;;;5042370;28;20021;-48
2023/08/24 05:47:17;;;;;;;7.75;3.25;;;24.00;58.50;;;;;;5055199;28;20025;-54
2023/08/24 05:49:43;;;;;;;10.80;3.30;;;24.10;58.50;;;;;;5052704;28;20071;-53
2023/08/24 05:52:09;;;;;;;9.85;3.35;;;24.10;58.50;;;;;;5030939;28;20043;-52
2023/08/24 05:54:38;;;;;;;8.95;4.50;;;24.10;58.50;;;;;;5049216;28;20020;-52
2023/08/24 05:57:05;;;;;;;10.10;4.00;;;24.10;58.50;;;;;;5047384;28;20036;-52
2023/08/24 05:59:34;;;;;;;14.23;4.72;;;24.10;58.30;;;;;;5052585;28;20049;-51
2023/08/24 06:02:00;;;;;;;12.50;4.25;;;24.20;58.70;;;;;;5043216;28;20025;-54
2023/08/24 06:04:26;;;;;;;15.80;4.20;;;24.20;58.40;;;;;;5035684;28;20484;-48
2023/08/24 06:06:52;;;;;;;13.40;5.45;;;24.20;58.20;;;;;;5054827;28;20024;-53
2023/08/24 06:09:18;;;;;;;13.13;4.95;;;24.10;57.80;;;;;;5026800;28;20027;-54
2023/08/24 06:11:44;;;;;;;14.50;3.90;;;24.10;57.90;;;;;;5052112;28;20104;-51
2023/08/24 06:14:09;;;;;;;9.02;3.95;;;24.10;58.40;;;;;;5051993;28;20071;-53
2023/08/24 06:16:35;;;;;;;13.98;4.85;;;24.10;58.00;;;;;;5052192;28;20540;-51
2023/08/24 06:19:01;;;;;;;10.55;4.53;;;24.20;58.50;;;;;;5052196;28;20472;-49
2023/08/24 06:21:27;;;;;;;11.55;4.20;;;24.20;58.60;;;;;;5052420;28;20091;-48
2023/08/24 06:23:53;;;;;;;16.55;3.67;;;24.30;58.80;;;;;;5051898;28;20044;-50
2023/08/24 06:26:18;;;;;;;8.45;3.65;;;24.30;58.40;;;;;;5052079;28;20033;-53
2023/08/24 06:28:44;;;;;;;21.65;4.95;;;24.30;58.90;;;;;;5043978;28;20056;-51
2023/08/24 06:31:10;;;;;;;25.80;5.07;;;24.30;58.90;;;;;;5051314;28;20488;-53
2023/08/24 06:33:36;;;;;;;17.65;4.03;;;24.30;58.20;;;;;;5051434;28;20025;-48
2023/08/24 06:36:06;;;;;;;13.45;4.95;;;24.30;58.90;;;;;;5050930;28;20031;-48
2023/08/24 06:38:32;;;;;;;11.77;3.70;;;24.30;58.60;;;;;;5034007;28;20078;-49
2023/08/24 06:40:58;;;;;;;13.45;4.63;;;24.30;58.80;;;;;;5051554;28;20025;-51
2023/08/24 06:43:25;;;;;;;10.57;3.92;;;24.30;58.50;;;;;;5033721;28;20455;-50
2023/08/24 06:45:51;;;;;;;9.32;3.70;;;24.30;58.70;;;;;;5051791;28;20021;-50
2023/08/24 06:48:18;;;;;;;6.03;3.33;;;24.30;58.60;;;;;;5032404;28;20104;-44
2023/08/24 06:50:44;;;;;;;10.32;3.30;;;24.30;58.40;;;;;;5045634;28;20147;-49
2023/08/24 06:53:10;;;;;;;6.72;3.05;;;24.30;58.20;;;;;;5051224;28;20753;-48
2023/08/24 06:55:36;;;;;;;9.35;3.15;;;24.40;58.20;;;;;;5051476;28;20033;-47
2023/08/24 06:58:05;;;;;;;7.80;3.38;;;24.30;58.30;;;;;;5050897;28;20021;-46
2023/08/24 07:00:31;;;;;;;11.38;3.20;;;24.40;58.20;;;;;;5051611;28;20389;-47
2023/08/24 07:02:57;;;;;;;11.77;3.40;;;24.30;58.30;;;;;;5051289;28;20025;-51
2023/08/24 07:05:23;;;;;;;10.20;3.00;;;24.40;58.80;;;;;;5051164;28;20048;-51
2023/08/24 07:07:53;;;;;;;13.45;3.38;;;24.40;58.70;;;;;;5051527;28;20045;-46
2023/08/24 07:10:20;;;;;;;9.88;3.63;;;24.40;58.80;;;;;;5049680;28;20530;-45
2023/08/24 07:12:46;;;;;;;8.85;3.65;;;24.40;58.70;;;;;;5051112;28;20049;-52
2023/08/24 07:15:13;;;;;;;7.80;3.13;;;24.40;58.80;;;;;;5050799;28;20100;-52
2023/08/24 07:17:39;;;;;;;9.88;3.60;;;24.40;59.10;;;;;;5051224;28;20552;-46
2023/08/24 07:20:06;;;;;;;10.35;3.40;;;24.40;58.90;;;;;;5051123;28;20028;-45
2023/08/24 07:22:32;;;;;;;7.60;2.90;;;24.40;58.70;;;;;;5051194;28;20079;-46
2023/08/24 07:24:58;;;;;;;14.63;3.67;;;24.50;58.80;;;;;;5050799;28;20029;-44
2023/08/24 07:27:24;;;;;;;16.08;3.22;;;24.50;58.50;;;;;;5051227;28;20021;-45
2023/08/24 07:29:50;;;;;;;13.73;2.78;;;24.50;58.80;;;;;;5043795;28;20392;-51
2023/08/24 07:32:15;;;;;;;6.93;2.88;;;24.60;58.60;;;;;;5046472;28;20112;-48
2023/08/24 07:34:41;;;;;;;10.98;3.83;;;24.50;58.10;;;;;;5044887;28;20029;-51
2023/08/24 07:37:07;;;;;;;11.18;2.80;;;24.50;58.10;;;;;;5052558;28;20112;-50
2023/08/24 07:39:33;;;;;;;10.07;2.92;;;24.50;58.30;;;;;;5042317;28;20029;-50
2023/08/24 07:41:59;;;;;;;17.20;3.03;;;24.50;58.50;;;;;;5055981;28;20017;-48
2023/08/24 07:44:25;;;;;;;14.45;3.15;;;24.50;58.20;;;;;;5054929;28;20017;-48
2023/08/24 07:46:51;;;;;;;12.38;3.53;;;24.50;58.30;;;;;;5054908;28;20032;-53
2023/08/24 07:49:17;;;;;;;10.30;3.72;;;24.60;58.20;;;;;;5054871;28;20021;-49
2023/08/24 07:51:43;;;;;;;12.68;3.50;;;24.60;58.40;;;;;;5046500;28;20075;-48
2023/08/24 07:54:09;;;;;;;8.18;2.83;;;24.60;58.10;;;;;;5054275;28;20504;-49
2023/08/24 07:56:36;;;;;;;8.02;3.05;;;24.60;57.90;;;;;;5055248;28;20017;-51
2023/08/24 07:59:02;;;;;;;8.23;2.78;;;24.60;57.90;;;;;;5054915;28;20014;-52
2023/08/24 08:01:27;;;;;;;5.18;3.10;;;24.70;58.00;;;;;;5054368;28;20032;-51
2023/08/24 08:03:53;;;;;;;6.70;2.83;;;24.70;58.20;;;;;;5054265;28;20020;-50
2023/08/24 08:06:21;;;;;;;8.55;2.88;;;24.70;58.20;;;;;;5054431;28;20033;-51
2023/08/24 08:08:50;;;;;;;7.22;3.40;;;24.70;58.30;;;;;;5054679;28;20028;-53
2023/08/24 08:11:16;;;;;;;6.50;3.28;;;24.70;58.30;;;;;;5054557;28;20021;-46
2023/08/24 08:13:41;;;;;;;9.57;2.83;;;24.70;58.80;;;;;;5054365;28;20503;-49
2023/08/24 08:16:07;;;;;;;9.50;3.20;;;24.80;58.30;;;;;;5054364;28;20448;-49
2023/08/24 08:18:34;;;;;;;12.43;3.10;;;24.70;58.30;;;;;;5054473;28;20025;-51
2023/08/24 08:21:01;;;;;;;5.70;3.13;;;24.70;58.40;;;;;;5054200;28;20071;-47
2023/08/24 08:23:27;;;;;;;14.02;3.25;;;24.70;58.40;;;;;;5045894;28;20025;-54
2023/08/24 08:25:53;;;;;;;8.82;3.42;;;24.70;58.50;;;;;;5054239;28;20033;-52
2023/08/24 08:28:19;;;;;;;4.95;2.60;;;24.70;58.40;;;;;;5054382;28;20033;-54
2023/08/24 08:30:47;;;;;;;7.80;3.50;;;24.70;58.30;;;;;;5036601;28;20072;-54
2023/08/24 08:33:13;;;;;;;9.95;3.00;;;24.70;58.10;;;;;;5076405;22;20168;-49
2023/08/24 08:35:40;;;;;;;7.38;3.35;;;24.70;57.90;;;;;;5054057;28;20461;-54
2023/08/24 08:38:07;;;;;;;4.82;2.97;;;24.60;57.80;;;;;;5053405;28;20036;-52
2023/08/24 08:40:37;;;;;;;8.80;2.78;;;24.60;57.30;;;;;;5053632;28;20143;-53
2023/08/24 08:43:03;;;;;;;;;;;24.60;57.60;;;;;;5037369;28;20071;-47
2023/08/24 08:45:29;;;;;;;6.78;2.80;;;24.60;58.00;;;;;;5014370;28;19921;-47
2023/08/24 08:48:00;;;;;;;10.00;2.88;;;24.60;58.10;;;;;;5034049;28;20026;-47
2023/08/24 08:50:26;;;;;;;6.50;3.00;;;24.60;58.10;;;;;;5034378;28;20056;-48
2023/08/24 08:52:52;;;;;;;12.02;2.65;;;24.60;58.00;;;;;;5031453;28;20089;-54
2023/08/24 08:55:18;;;;;;;12.90;2.60;;;24.70;58.30;;;;;;5012870;28;20137;-49
2023/08/24 08:57:48;;;;;;;11.45;2.80;;;24.60;58.40;;;;;;5034052;28;20103;-50
2023/08/24 09:00:16;;;;;;;6.00;2.50;;;24.60;58.40;;;;;;5034132;28;20026;-49
2023/08/24 09:02:45;;;;;;;8.60;2.53;;;24.60;58.20;;;;;;5033297;28;20025;-50
2023/08/24 09:05:12;;;;;;;6.30;2.85;;;24.60;58.40;;;;;;5033787;28;20431;-48
2023/08/24 09:07:41;;;;;;;5.47;2.58;;;24.60;58.50;;;;;;5034064;28;20088;-48
2023/08/24 09:10:08;;;;;;;;;;;24.60;59.40;;;;;;5034434;28;20033;-51
2023/08/24 09:12:34;;;;;;;6.88;2.63;;;24.60;58.80;;;;;;5033850;28;19927;-48
2023/08/24 09:15:06;;;;;;;7.60;2.63;;;24.60;59.40;;;;;;5033620;28;20516;-48
2023/08/24 09:17:33;;;;;;;5.97;2.90;;;24.60;58.80;;;;;;5033869;28;20033;-51
2023/08/24 09:20:00;;;;;;;7.38;2.50;;;24.60;59.10;;;;;;5033803;28;20115;-49
2023/08/24 09:22:26;;;;;;;9.48;3.00;;;24.60;59.10;;;;;;5033592;28;20025;-50
2023/08/24 09:24:54;;;;;;;8.18;2.95;;;24.60;59.10;;;;;;5033474;28;20025;-49
2023/08/24 09:27:21;;;;;;;4.70;2.40;;;24.60;59.10;;;;;;5033674;28;20033;-52
2023/08/24 09:29:51;;;;;;;5.88;2.70;;;24.60;59.20;;;;;;5033594;28;20485;-53
2023/08/24 09:32:24;;;;;;;6.25;2.35;;;24.60;59.10;;;;;;5033494;28;20160;-54
2023/08/24 09:34:51;;;;;;;5.78;2.92;;;24.60;59.20;;;;;;5033258;28;20108;-52
2023/08/24 09:37:17;;;;;;;6.38;2.78;;;24.60;59.10;;;;;;5033395;28;20029;-53
2023/08/24 09:39:44;;;;;;;8.50;2.50;;;24.60;59.20;;;;;;5033505;28;20444;-54
2023/08/24 09:42:10;;;;;;;6.43;2.63;;;24.60;59.20;;;;;;5033271;28;20120;-54
2023/08/24 09:44:36;;;;;;;7.22;2.90;;;24.60;59.30;;;;;;5032994;28;20504;-52
2023/08/24 09:47:02;;;;;;;8.10;2.65;;;24.60;59.20;;;;;;5033213;28;20525;-53
2023/08/24 09:49:28;;;;;;;7.10;2.80;;;24.60;59.40;;;;;;5033159;28;20032;-49
2023/08/24 09:51:57;;;;;;;6.40;2.22;;;24.70;59.40;;;;;;5032905;28;20461;-53
2023/08/24 09:54:27;;;;;;;5.47;2.70;;;24.70;59.40;;;;;;5032958;28;20056;-54
2023/08/24 09:56:55;;;;;;;6.25;2.53;;;24.70;59.30;;;;;;5032749;28;20021;-51
2023/08/24 09:59:24;;;;;;;5.20;2.40;;;24.70;59.40;;;;;;5032360;28;20039;-53
2023/08/24 10:01:51;;;;;;;4.70;2.58;;;24.70;59.40;;;;;;5033046;28;20022;-48
2023/08/24 10:04:25;;;;;;;8.75;2.55;;;24.70;59.50;;;;;;5032787;28;20397;-49
2023/08/24 10:07:05;;;;;;;4.28;2.22;;;24.70;59.50;;;;;;5032843;28;20030;-54
2023/08/24 10:09:58;;;;;;;5.03;2.60;;;24.70;59.50;;;;;;5032821;28;20037;-49
2023/08/24 10:12:28;;;;;;;4.53;2.33;;;24.70;59.60;;;;;;5032937;28;20087;-51
2023/08/24 10:15:18;;;;;;;5.63;2.58;;;24.70;59.40;;;;;;5014854;28;20065;-52
2023/08/24 10:17:44;;;;;;;;;;;24.80;59.40;;;;;;5033548;28;20037;-54
2023/08/24 10:20:11;;;;;;;4.85;2.33;;;24.70;59.40;;;;;;5032687;28;20368;-50
2023/08/24 10:22:41;;;;;;;5.25;2.38;;;24.80;59.50;;;;;;5032435;28;20022;-53
2023/08/24 10:25:08;;;;;;;6.10;2.55;;;24.80;59.50;;;;;;5032707;28;20083;-51
2023/08/24 10:27:35;;;;;;;4.57;2.55;;;24.80;59.50;;;;;;5032501;28;20025;-50
2023/08/24 10:30:01;;;;;;;4.65;2.30;;;24.80;59.50;;;;;;5032408;28;20480;-53
2023/08/24 10:32:28;;;;;;;5.13;2.40;;;24.80;59.60;;;;;;5014699;28;20440;-49
2023/08/24 10:34:54;;;;;;;5.13;2.38;;;24.80;59.60;;;;;;5031900;28;20457;-49
2023/08/24 10:37:27;;;;;;;7.13;2.75;;;24.80;59.70;;;;;;5032197;28;20073;-49
2023/08/24 10:39:53;;;;;;;5.85;2.80;;;24.80;59.70;;;;;;5032537;28;20424;-54
2023/08/24 10:42:21;;;;;;;5.38;2.75;;;24.80;59.60;;;;;;5032301;28;20440;-55
2023/08/24 10:44:47;;;;;;;3.88;2.35;;;24.80;59.70;;;;;;5031920;28;20021;-56
2023/08/24 10:47:23;;;;;;;6.07;3.03;;;24.80;59.70;;;;;;5032041;28;20056;-56
2023/08/24 10:49:55;;;;;;;5.30;2.83;;;24.80;59.70;;;;;;5032017;28;20083;-54
2023/08/24 10:52:34;;;;;;;6.07;2.40;;;24.80;59.80;;;;;;5031907;28;20116;-55
2023/08/24 10:55:03;;;;;;;6.38;3.30;;;24.80;59.70;;;;;;5031716;28;20030;-51
2023/08/24 10:57:41;;;;;;;5.63;2.72;;;24.80;59.80;;;;;;5031618;28;20044;-55
2023/08/24 11:00:09;;;;;;;5.13;2.42;;;24.80;59.90;;;;;;5031998;28;20104;-55
2023/08/24 11:02:45;;;;;;;3.95;2.90;;;24.80;60.00;;;;;;5031802;28;20033;-55
2023/08/24 11:05:31;;;;;;;3.85;2.50;;;24.80;59.90;;;;;;5031431;28;20044;-56
2023/08/24 11:08:00;;;;;;;3.83;2.22;;;24.80;60.00;;;;;;5031725;28;20495;-54
2023/08/24 11:10:31;;;;;;;5.80;2.53;;;24.80;60.00;;;;;;5030871;28;20047;-56
2023/08/24 11:13:03;;;;;;;5.28;2.28;;;24.80;60.00;;;;;;5031616;28;20029;-55
2023/08/24 11:15:33;;;;;;;4.07;2.60;;;24.80;60.00;;;;;;5031361;28;20021;-55
2023/08/24 11:18:18;;;;;;;6.65;2.85;;;24.80;60.10;;;;;;5032116;28;20037;-55
2023/08/24 11:20:44;;;;;;;5.43;2.40;;;24.80;60.10;;;;;;5031607;28;20116;-49
2023/08/24 11:23:11;;;;;;;4.97;2.60;;;24.80;60.10;;;;;;5031306;28;20032;-55
2023/08/24 11:25:37;;;;;;;4.28;2.60;;;24.80;60.20;;;;;;5031687;28;20045;-54
2023/08/24 11:28:05;;;;;;;4.72;2.67;;;24.80;60.10;;;;;;5031613;28;20018;-49
2023/08/24 11:30:33;;;;;;;6.53;2.60;;;24.80;60.20;;;;;;5031461;28;20079;-53
2023/08/24 11:32:59;;;;;;;5.05;2.58;;;24.80;60.20;;;;;;5031239;28;20647;-54
2023/08/24 11:35:25;;;;;;;4.93;2.70;;;24.80;60.20;;;;;;5031150;28;20048;-53
2023/08/24 11:37:57;;;;;;;6.40;2.55;;;24.80;60.30;;;;;;5031487;28;20034;-52
2023/08/24 11:40:26;;;;;;;4.43;2.75;;;24.80;60.30;;;;;;5031442;28;20101;-51
2023/08/24 11:42:59;;;;;;;4.15;2.53;;;24.80;60.30;;;;;;5031406;28;20030;-55
2023/08/24 11:45:31;;;;;;;5.20;2.60;;;24.80;60.40;;;;;;5031155;28;20531;-53
2023/08/24 11:48:02;;;;;;;5.38;2.53;;;24.80;60.30;;;;;;5031499;28;20418;-52
2023/08/24 11:50:28;;;;;;;3.45;2.30;;;24.80;60.40;;;;;;5014036;28;20033;-50
2023/08/24 11:52:54;;;;;;;4.15;2.47;;;24.80;60.40;;;;;;5031195;28;20037;-51
2023/08/24 11:55:23;;;;;;;5.88;2.80;;;24.80;60.40;;;;;;5030721;28;20064;-50
2023/08/24 11:57:50;;;;;;;6.32;2.90;;;24.80;60.40;;;;;;5031278;28;20095;-49
2023/08/24 12:00:20;;;;;;;3.53;2.47;;;24.80;60.40;;;;;;5031243;28;20028;-50
2023/08/24 12:02:46;;;;;;;5.68;2.47;;;24.80;60.40;;;;;;5031456;28;20018;-48
2023/08/24 12:05:23;;;;;;;4.50;2.70;;;24.80;60.40;;;;;;5030913;28;20034;-53
2023/08/24 12:07:52;;;;;;;4.75;2.80;;;24.80;61.00;;;;;;5031130;28;20022;-54
2023/08/24 12:10:18;;;;;;;5.47;2.80;;;24.80;60.40;;;;;;5031301;28;20024;-48
2023/08/24 12:12:43;;;;;;;4.43;2.55;;;24.80;60.40;;;;;;5031104;28;20385;-50
2023/08/24 12:15:19;;;;;;;6.00;2.42;;;24.80;60.40;;;;;;5030812;28;20124;-54
2023/08/24 12:17:47;;;;;;;4.35;2.40;;;24.80;60.40;;;;;;5031040;28;20025;-51
2023/08/24 12:20:22;;;;;;;4.72;2.40;;;24.80;60.40;;;;;;5030994;28;20041;-50
2023/08/24 12:22:53;;;;;;;3.65;2.30;;;24.90;60.50;;;;;;5034195;28;20108;-51
2023/08/24 12:25:22;;;;;;;4.10;2.50;;;24.80;60.40;;;;;;5034453;28;20397;-54
2023/08/24 12:27:47;;;;;;;5.90;2.50;;;24.80;61.00;;;;;;5034689;28;20034;-54
2023/08/24 12:30:13;;;;;;;4.05;2.50;;;24.80;60.50;;;;;;5034903;28;20260;-50
2023/08/24 12:32:51;;;;;;;5.15;2.40;;;24.80;60.50;;;;;;5034398;28;20049;-52
2023/08/24 12:35:17;;;;;;;3.67;2.40;;;24.80;60.50;;;;;;5034297;28;20068;-49
2023/08/24 12:37:43;;;;;;;4.00;2.28;;;24.80;60.50;;;;;;5034424;28;20507;-51
2023/08/24 12:40:10;;;;;;;4.07;2.47;;;24.80;60.60;;;;;;5034594;28;20061;-55
2023/08/24 12:42:36;;;;;;;5.05;2.65;;;24.80;60.60;;;;;;5034352;28;20048;-50
2023/08/24 12:45:04;;;;;;;3.78;2.47;;;24.80;60.50;;;;;;5034092;28;20037;-51
2023/08/24 12:47:30;;;;;;;5.55;2.78;;;24.80;60.60;;;;;;5016517;28;20485;-50